createdAt,value
2016-03-29T00:00:38.614Z,0
2016-03-29T00:01:38.586Z,0
2016-03-29T00:02:38.558Z,0
2016-03-29T00:03:38.389Z,0
2016-03-29T00:04:38.501Z,0
2016-03-29T00:05:38.473Z,0
2016-03-29T00:06:38.459Z,0
2016-03-29T00:07:38.275Z,0
2016-03-29T00:08:38.402Z,0
2016-03-29T00:09:38.358Z,0
2016-03-29T00:10:38.360Z,0
2016-03-29T00:11:38.301Z,0
2016-03-29T00:12:38.288Z,0
2016-03-29T00:13:38.260Z,0
2016-03-29T00:14:38.231Z,0
2016-03-29T00:15:38.265Z,0
2016-03-29T00:16:38.188Z,0
2016-03-29T00:17:38.160Z,0
2016-03-29T00:18:38.132Z,0
2016-03-29T00:19:38.104Z,0
2016-03-29T00:20:38.074Z,0
2016-03-29T00:21:38.046Z,0
2016-03-29T00:22:38.018Z,0
2016-03-29T00:23:38.004Z,0
2016-03-29T00:24:37.961Z,0
2016-03-29T00:25:37.948Z,0
2016-03-29T00:26:37.904Z,0
2016-03-29T00:27:37.906Z,0
2016-03-29T00:28:37.878Z,0
2016-03-29T00:29:37.834Z,0
2016-03-29T00:30:37.836Z,0
2016-03-29T00:31:37.792Z,0
2016-03-29T00:32:37.778Z,0
2016-03-29T00:33:37.735Z,0
2016-03-29T00:34:37.691Z,0
2016-03-29T00:35:37.678Z,0
2016-03-29T00:36:37.650Z,0
2016-03-29T00:37:37.620Z,0
2016-03-29T00:38:37.592Z,0
2016-03-29T00:39:37.547Z,0
2016-03-29T00:40:37.567Z,0
2016-03-29T00:41:37.522Z,0
2016-03-29T00:42:37.509Z,0
2016-03-29T00:43:37.465Z,0
2016-03-29T00:44:37.452Z,0
2016-03-29T00:45:37.424Z,0
2016-03-29T00:46:37.379Z,0
2016-03-29T00:47:37.211Z,0
2016-03-29T00:48:37.322Z,0
2016-03-29T00:49:37.310Z,0
2016-03-29T00:50:37.280Z,0
2016-03-29T00:51:37.252Z,0
2016-03-29T00:52:37.240Z,0
2016-03-29T00:53:37.210Z,0
2016-03-29T00:54:37.182Z,0
2016-03-29T00:55:37.248Z,0
2016-03-29T00:56:37.157Z,0
2016-03-29T00:57:37.096Z,0
2016-03-29T00:58:37.068Z,0
2016-03-29T00:59:37.040Z,0
2016-03-29T01:00:37.026Z,0
2016-03-29T01:01:36.997Z,0
2016-03-29T01:02:36.970Z,0
2016-03-29T01:03:36.940Z,0
2016-03-29T01:04:36.897Z,0
2016-03-29T01:05:36.914Z,0
2016-03-29T01:06:36.855Z,0
2016-03-29T01:07:36.842Z,0
2016-03-29T01:08:36.803Z,0
2016-03-29T01:09:36.758Z,0
2016-03-29T01:10:36.746Z,0
2016-03-29T01:11:36.717Z,0
2016-03-29T01:12:36.532Z,0
2016-03-29T01:13:36.660Z,0
2016-03-29T01:14:36.647Z,0
2016-03-29T01:15:36.603Z,0
2016-03-29T01:16:36.605Z,0
2016-03-29T01:17:36.546Z,0
2016-03-29T01:18:36.549Z,0
2016-03-29T01:19:36.504Z,0
2016-03-29T01:20:36.491Z,0
2016-03-29T01:21:36.431Z,0
2016-03-29T01:22:36.419Z,0
2016-03-29T01:23:36.390Z,0
2016-03-29T01:24:36.377Z,0
2016-03-29T01:25:36.332Z,0
2016-03-29T01:26:36.304Z,0
2016-03-29T01:27:36.292Z,0
2016-03-29T01:28:36.262Z,0
2016-03-29T01:29:36.234Z,0
2016-03-29T01:30:36.206Z,0
2016-03-29T01:31:36.177Z,0
2016-03-29T01:32:36.133Z,0
2016-03-29T01:33:36.104Z,0
2016-03-29T01:34:35.936Z,0
2016-03-29T01:35:36.078Z,0
2016-03-29T01:36:36.049Z,0
2016-03-29T01:37:36.005Z,0
2016-03-29T01:38:35.977Z,0
2016-03-29T01:39:35.949Z,0
2016-03-29T01:40:35.935Z,0
2016-03-29T01:41:35.891Z,0
2016-03-29T01:42:35.863Z,0
2016-03-29T01:43:35.866Z,0
2016-03-29T01:44:35.805Z,0
2016-03-29T01:45:35.777Z,0
2016-03-29T01:46:35.749Z,0
2016-03-29T01:47:35.720Z,0
2016-03-29T01:48:35.707Z,0
2016-03-29T01:49:35.678Z,0
2016-03-29T01:50:35.666Z,0
2016-03-29T01:51:35.637Z,0
2016-03-29T01:52:35.609Z,0
2016-03-29T01:53:35.580Z,0
2016-03-29T01:54:35.551Z,0
2016-03-29T01:55:35.507Z,0
2016-03-29T01:56:35.478Z,0
2016-03-29T01:57:35.451Z,0
2016-03-29T01:58:35.437Z,0
2016-03-29T01:59:35.393Z,0
2016-03-29T02:00:35.380Z,0
2016-03-29T02:01:35.336Z,0
2016-03-29T02:02:35.323Z,0
2016-03-29T02:03:35.294Z,0
2016-03-29T02:04:35.250Z,0
2016-03-29T02:05:35.237Z,0
2016-03-29T02:06:35.209Z,0
2016-03-29T02:07:35.180Z,0
2016-03-29T02:08:35.152Z,0
2016-03-29T02:09:35.123Z,0
2016-03-29T02:10:35.095Z,0
2016-03-29T02:11:35.066Z,0
2016-03-29T02:12:35.052Z,0
2016-03-29T02:13:35.024Z,0
2016-03-29T02:14:35.011Z,0
2016-03-29T02:15:34.967Z,0
2016-03-29T02:16:34.955Z,0
2016-03-29T02:17:34.911Z,0
2016-03-29T02:18:34.882Z,0
2016-03-29T02:19:34.852Z,0
2016-03-29T02:20:34.824Z,0
2016-03-29T02:21:34.796Z,0
2016-03-29T02:22:34.767Z,0
2016-03-29T02:23:34.738Z,0
2016-03-29T02:24:34.725Z,0
2016-03-29T02:25:34.698Z,0
2016-03-29T02:26:34.653Z,0
2016-03-29T02:27:34.624Z,0
2016-03-29T02:28:34.612Z,0
2016-03-29T02:29:34.583Z,0
2016-03-29T02:30:34.554Z,0
2016-03-29T02:31:34.525Z,0
2016-03-29T02:32:34.497Z,0
2016-03-29T02:33:34.469Z,0
2016-03-29T02:34:34.440Z,0
2016-03-29T02:35:34.411Z,0
2016-03-29T02:36:34.414Z,0
2016-03-29T02:37:34.339Z,0
2016-03-29T02:38:34.341Z,0
2016-03-29T02:39:34.297Z,0
2016-03-29T02:40:34.284Z,0
2016-03-29T02:41:34.256Z,0
2016-03-29T02:42:34.227Z,0
2016-03-29T02:43:34.199Z,0
2016-03-29T02:44:34.170Z,0
2016-03-29T02:45:34.158Z,0
2016-03-29T02:46:34.113Z,0
2016-03-29T02:47:34.115Z,0
2016-03-29T02:48:34.056Z,0
2016-03-29T02:49:34.058Z,0
2016-03-29T02:50:33.858Z,0
2016-03-29T02:51:33.986Z,0
2016-03-29T02:52:33.958Z,0
2016-03-29T02:53:33.929Z,0
2016-03-29T02:54:33.900Z,0
2016-03-29T02:55:33.871Z,0
2016-03-29T02:56:33.843Z,0
2016-03-29T02:57:33.846Z,0
2016-03-29T02:58:33.801Z,0
2016-03-29T02:59:33.757Z,0
2016-03-29T03:00:33.745Z,0
2016-03-29T03:01:33.701Z,0
2016-03-29T03:02:33.687Z,0
2016-03-29T03:03:33.659Z,0
2016-03-29T03:04:33.631Z,0
2016-03-29T03:05:33.586Z,0
2016-03-29T03:06:33.573Z,0
2016-03-29T03:07:33.545Z,0
2016-03-29T03:08:33.517Z,0
2016-03-29T03:09:33.487Z,0
2016-03-29T03:10:33.302Z,0
2016-03-29T03:11:33.430Z,0
2016-03-29T03:12:33.417Z,0
2016-03-29T03:13:33.372Z,0
2016-03-29T03:14:33.375Z,0
2016-03-29T03:15:33.191Z,0
2016-03-29T03:16:33.303Z,0
2016-03-29T03:17:33.290Z,0
2016-03-29T03:18:33.246Z,0
2016-03-29T03:19:33.218Z,0
2016-03-29T03:20:33.188Z,0
2016-03-29T03:21:33.176Z,0
2016-03-29T03:22:33.146Z,0
2016-03-29T03:23:33.119Z,0
2016-03-29T03:24:33.090Z,0
2016-03-29T03:25:33.062Z,0
2016-03-29T03:26:33.049Z,0
2016-03-29T03:27:33.004Z,0
2016-03-29T03:28:32.976Z,0
2016-03-29T03:29:32.947Z,0
2016-03-29T03:30:32.934Z,0
2016-03-29T03:31:32.890Z,0
2016-03-29T03:32:32.893Z,0
2016-03-29T03:33:32.833Z,0
2016-03-29T03:34:32.820Z,0
2016-03-29T03:35:32.776Z,0
2016-03-29T03:36:32.763Z,0
2016-03-29T03:37:32.735Z,0
2016-03-29T03:38:32.706Z,0
2016-03-29T03:39:32.678Z,0
2016-03-29T03:40:32.649Z,0
2016-03-29T03:41:32.730Z,0
2016-03-29T03:42:32.608Z,0
2016-03-29T03:43:32.594Z,0
2016-03-29T03:44:32.550Z,0
2016-03-29T03:45:32.521Z,0
2016-03-29T03:46:32.494Z,0
2016-03-29T03:47:32.464Z,0
2016-03-29T03:48:32.452Z,0
2016-03-29T03:49:32.424Z,0
2016-03-29T03:50:32.363Z,0
2016-03-29T03:51:32.366Z,0
2016-03-29T03:52:32.321Z,0
2016-03-29T03:53:32.294Z,0
2016-03-29T03:54:32.280Z,0
2016-03-29T03:55:32.251Z,0
2016-03-29T03:56:32.270Z,0
2016-03-29T03:57:32.195Z,0
2016-03-29T03:58:32.181Z,0
2016-03-29T03:59:32.138Z,0
2016-03-29T04:00:32.109Z,0
2016-03-29T04:01:32.081Z,0
2016-03-29T04:02:32.051Z,0
2016-03-29T04:03:32.039Z,0
2016-03-29T04:04:31.995Z,0
2016-03-29T04:05:32.028Z,0
2016-03-29T04:06:31.953Z,0
2016-03-29T04:07:31.939Z,0
2016-03-29T04:08:31.896Z,0
2016-03-29T04:09:31.883Z,0
2016-03-29T04:10:31.839Z,0
2016-03-29T04:11:31.920Z,0
2016-03-29T04:12:31.781Z,0
2016-03-29T04:13:31.753Z,0
2016-03-29T04:14:31.725Z,0
2016-03-29T04:15:31.696Z,0
2016-03-29T04:16:31.683Z,0
2016-03-29T04:17:31.654Z,0
2016-03-29T04:18:31.627Z,0
2016-03-29T04:19:31.597Z,0
2016-03-29T04:20:31.569Z,0
2016-03-29T04:21:31.541Z,0
2016-03-29T04:22:31.527Z,0
2016-03-29T04:23:31.483Z,0
2016-03-29T04:24:31.470Z,0
2016-03-29T04:25:31.441Z,0
2016-03-29T04:26:31.538Z,0
2016-03-29T04:27:31.385Z,0
2016-03-29T04:28:35.404Z,0
2016-03-29T04:29:37.718Z,0
2016-03-29T04:30:32.518Z,0
2016-03-29T04:31:37.818Z,0
2016-03-29T04:32:37.695Z,0
2016-03-29T04:33:35.729Z,0
2016-03-29T04:34:37.404Z,0
2016-03-29T04:35:32.406Z,0
2016-03-29T04:36:35.143Z,0
2016-03-29T04:37:37.349Z,0
2016-03-29T04:38:32.523Z,0
2016-03-29T04:39:31.042Z,0
2016-03-29T04:40:31.029Z,0
2016-03-29T04:41:31.157Z,0
2016-03-29T04:42:30.956Z,0
2016-03-29T04:43:30.944Z,0
2016-03-29T04:44:30.914Z,0
2016-03-29T04:45:30.902Z,0
2016-03-29T04:46:37.014Z,0
2016-03-29T04:47:37.017Z,0
2016-03-29T04:48:45.707Z,0
2016-03-29T04:49:34.085Z,0
2016-03-29T04:50:30.775Z,0
2016-03-29T04:51:37.715Z,0
2016-03-29T04:52:37.202Z,0
2016-03-29T04:53:37.517Z,0
2016-03-29T04:54:30.645Z,0
2016-03-29T04:55:30.647Z,0
2016-03-29T04:56:30.682Z,0
2016-03-29T04:57:30.607Z,0
2016-03-29T04:58:30.547Z,0
2016-03-29T04:59:30.533Z,0
2016-03-29T05:00:30.490Z,0
2016-03-29T05:01:30.492Z,0
2016-03-29T05:02:30.432Z,0
2016-03-29T05:03:30.404Z,0
2016-03-29T05:04:30.375Z,0
2016-03-29T05:05:30.361Z,0
2016-03-29T05:06:30.318Z,0
2016-03-29T05:07:30.304Z,0
2016-03-29T05:08:30.276Z,0
2016-03-29T05:09:30.248Z,0
2016-03-29T05:10:30.220Z,5
2016-03-29T05:11:30.269Z,5
2016-03-29T05:12:30.146Z,5
2016-03-29T05:13:30.118Z,5
2016-03-29T05:14:30.089Z,5
2016-03-29T05:15:30.075Z,10
2016-03-29T05:16:30.047Z,10
2016-03-29T05:17:30.019Z,10
2016-03-29T05:18:29.991Z,15
2016-03-29T05:19:29.961Z,15
2016-03-29T05:20:29.934Z,10
2016-03-29T05:21:29.905Z,10
2016-03-29T05:22:29.892Z,10
2016-03-29T05:23:29.863Z,10
2016-03-29T05:24:29.819Z,15
2016-03-29T05:25:29.791Z,15
2016-03-29T05:26:30.043Z,15
2016-03-29T05:27:29.765Z,15
2016-03-29T05:28:29.736Z,15
2016-03-29T05:29:29.693Z,15
2016-03-29T05:30:29.680Z,15
2016-03-29T05:31:29.666Z,20
2016-03-29T05:32:29.638Z,20
2016-03-29T05:33:29.578Z,15
2016-03-29T05:34:29.565Z,15
2016-03-29T05:35:29.536Z,20
2016-03-29T05:36:29.524Z,20
2016-03-29T05:37:29.479Z,15
2016-03-29T05:38:29.466Z,20
2016-03-29T05:39:29.437Z,20
2016-03-29T05:40:29.409Z,15
2016-03-29T05:41:29.442Z,20
2016-03-29T05:42:29.336Z,25
2016-03-29T05:43:29.323Z,25
2016-03-29T05:44:29.294Z,25
2016-03-29T05:45:29.266Z,25
2016-03-29T05:46:29.238Z,25
2016-03-29T05:47:29.209Z,25
2016-03-29T05:48:29.180Z,25
2016-03-29T05:49:29.167Z,25
2016-03-29T05:50:29.123Z,15
2016-03-29T05:51:29.095Z,20
2016-03-29T05:52:28.925Z,25
2016-03-29T05:53:29.053Z,35
2016-03-29T05:54:29.025Z,45
2016-03-29T05:55:28.997Z,50
2016-03-29T05:56:28.968Z,40
2016-03-29T05:57:28.938Z,40
2016-03-29T05:58:28.910Z,30
2016-03-29T05:59:28.882Z,35
2016-03-29T06:00:28.853Z,40
2016-03-29T06:01:28.840Z,45
2016-03-29T06:02:28.812Z,45
2016-03-29T06:03:28.784Z,35
2016-03-29T06:04:28.771Z,30
2016-03-29T06:05:28.742Z,35
2016-03-29T06:06:28.698Z,35
2016-03-29T06:07:28.670Z,35
2016-03-29T06:08:28.640Z,45
2016-03-29T06:09:28.612Z,50
2016-03-29T06:10:28.587Z,45
2016-03-29T06:11:28.559Z,50
2016-03-29T06:12:28.546Z,50
2016-03-29T06:13:28.502Z,55
2016-03-29T06:14:28.489Z,65
2016-03-29T06:15:28.460Z,70
2016-03-29T06:16:28.432Z,75
2016-03-29T06:17:28.403Z,80
2016-03-29T06:18:28.375Z,65
2016-03-29T06:19:28.346Z,80
2016-03-29T06:20:28.318Z,75
2016-03-29T06:21:28.289Z,95
2016-03-29T06:22:28.260Z,90
2016-03-29T06:23:28.247Z,70
2016-03-29T06:24:28.218Z,60
2016-03-29T06:25:28.190Z,50
2016-03-29T06:26:28.162Z,50
2016-03-29T06:27:28.133Z,60
2016-03-29T06:28:28.104Z,65
2016-03-29T06:29:28.091Z,70
2016-03-29T06:30:28.048Z,60
2016-03-29T06:31:28.034Z,70
2016-03-29T06:32:27.990Z,80
2016-03-29T06:33:27.946Z,90
2016-03-29T06:34:27.949Z,90
2016-03-29T06:35:27.920Z,110
2016-03-29T06:36:27.907Z,140
2016-03-29T06:37:27.864Z,130
2016-03-29T06:38:27.850Z,120
2016-03-29T06:39:27.822Z,160
2016-03-29T06:40:27.793Z,165
2016-03-29T06:41:27.764Z,165
2016-03-29T06:42:27.736Z,245
2016-03-29T06:43:27.723Z,275
2016-03-29T06:44:27.679Z,215
2016-03-29T06:45:27.665Z,120
2016-03-29T06:46:27.638Z,85
2016-03-29T06:47:27.624Z,95
2016-03-29T06:48:27.580Z,135
2016-03-29T06:49:27.552Z,120
2016-03-29T06:50:27.523Z,100
2016-03-29T06:51:27.510Z,75
2016-03-29T06:52:27.482Z,95
2016-03-29T06:53:27.454Z,95
2016-03-29T06:54:27.415Z,105
2016-03-29T06:55:27.213Z,100
2016-03-29T06:56:27.325Z,90
2016-03-29T06:57:27.279Z,115
2016-03-29T06:58:27.233Z,110
2016-03-29T06:59:27.223Z,100
2016-03-29T07:00:27.173Z,95
2016-03-29T07:01:27.138Z,100
2016-03-29T07:02:27.119Z,120
2016-03-29T07:03:27.069Z,120
2016-03-29T07:04:27.036Z,115
2016-03-29T07:05:27.005Z,140
2016-03-29T07:06:26.990Z,125
2016-03-29T07:07:26.959Z,135
2016-03-29T07:08:26.929Z,150
2016-03-29T07:09:26.899Z,160
2016-03-29T07:10:26.885Z,170
2016-03-29T07:11:26.839Z,145
2016-03-29T07:12:26.826Z,165
2016-03-29T07:13:26.782Z,145
2016-03-29T07:14:26.767Z,140
2016-03-29T07:15:26.722Z,100
2016-03-29T07:16:26.710Z,115
2016-03-29T07:17:26.681Z,100
2016-03-29T07:18:26.668Z,100
2016-03-29T07:19:26.623Z,105
2016-03-29T07:20:26.610Z,120
2016-03-29T07:21:26.582Z,135
2016-03-29T07:22:26.553Z,125
2016-03-29T07:23:26.524Z,120
2016-03-29T07:24:26.512Z,120
2016-03-29T07:25:26.499Z,130
2016-03-29T07:26:26.455Z,115
2016-03-29T07:27:26.426Z,110
2016-03-29T07:28:26.397Z,145
2016-03-29T07:29:26.244Z,160
2016-03-29T07:30:26.341Z,205
2016-03-29T07:31:26.327Z,195
2016-03-29T07:32:26.283Z,270
2016-03-29T07:33:26.270Z,285
2016-03-29T07:34:26.257Z,285
2016-03-29T07:35:26.229Z,295
2016-03-29T07:36:26.200Z,290
2016-03-29T07:37:26.172Z,250
2016-03-29T07:38:26.159Z,185
2016-03-29T07:39:26.115Z,165
2016-03-29T07:40:26.102Z,195
2016-03-29T07:41:26.058Z,205
2016-03-29T07:42:26.060Z,220
2016-03-29T07:43:26.016Z,155
2016-03-29T07:44:25.985Z,140
2016-03-29T07:45:25.971Z,175
2016-03-29T07:46:25.943Z,200
2016-03-29T07:47:25.930Z,190
2016-03-29T07:48:25.902Z,230
2016-03-29T07:49:25.873Z,230
2016-03-29T07:50:25.846Z,245
2016-03-29T07:51:25.832Z,230
2016-03-29T07:52:25.788Z,225
2016-03-29T07:53:25.775Z,195
2016-03-29T07:54:25.732Z,145
2016-03-29T07:55:25.718Z,105
2016-03-29T07:56:25.689Z,135
2016-03-29T07:57:25.662Z,115
2016-03-29T07:58:25.664Z,130
2016-03-29T07:59:25.667Z,125
2016-03-29T08:00:25.607Z,150
2016-03-29T08:01:25.562Z,150
2016-03-29T08:02:25.534Z,125
2016-03-29T08:03:25.506Z,150
2016-03-29T08:04:25.523Z,145
2016-03-29T08:05:25.479Z,170
2016-03-29T08:06:25.482Z,175
2016-03-29T08:07:25.282Z,210
2016-03-29T08:08:25.394Z,255
2016-03-29T08:09:25.365Z,210
2016-03-29T08:10:25.368Z,220
2016-03-29T08:11:25.339Z,185
2016-03-29T08:12:25.295Z,225
2016-03-29T08:13:25.266Z,280
2016-03-29T08:14:25.253Z,290
2016-03-29T08:15:25.210Z,225
2016-03-29T08:16:25.181Z,245
2016-03-29T08:17:25.169Z,280
2016-03-29T08:18:25.155Z,220
2016-03-29T08:19:25.127Z,200
2016-03-29T08:20:25.098Z,235
2016-03-29T08:21:25.069Z,245
2016-03-29T08:22:25.041Z,290
2016-03-29T08:23:25.013Z,295
2016-03-29T08:24:24.985Z,310
2016-03-29T08:25:24.987Z,330
2016-03-29T08:26:24.943Z,235
2016-03-29T08:27:24.913Z,190
2016-03-29T08:28:24.885Z,200
2016-03-29T08:29:24.857Z,240
2016-03-29T08:30:24.860Z,245
2016-03-29T08:31:24.815Z,245
2016-03-29T08:32:24.787Z,230
2016-03-29T08:33:24.758Z,255
2016-03-29T08:34:24.745Z,275
2016-03-29T08:35:24.717Z,275
2016-03-29T08:36:24.704Z,360
2016-03-29T08:37:24.691Z,255
2016-03-29T08:38:24.662Z,285
2016-03-29T08:39:24.618Z,290
2016-03-29T08:40:24.605Z,220
2016-03-29T08:41:24.576Z,230
2016-03-29T08:42:24.564Z,210
2016-03-29T08:43:24.550Z,160
2016-03-29T08:44:24.506Z,210
2016-03-29T08:45:24.477Z,305
2016-03-29T08:46:24.450Z,400
2016-03-29T08:47:24.436Z,395
2016-03-29T08:48:24.408Z,270
2016-03-29T08:49:24.395Z,380
2016-03-29T08:50:24.350Z,300
2016-03-29T08:51:24.322Z,250
2016-03-29T08:52:24.309Z,255
2016-03-29T08:53:24.281Z,260
2016-03-29T08:54:24.252Z,245
2016-03-29T08:55:24.224Z,190
2016-03-29T08:56:24.227Z,160
2016-03-29T08:57:24.198Z,220
2016-03-29T08:58:24.154Z,160
2016-03-29T08:59:24.141Z,165
2016-03-29T09:00:24.112Z,155
2016-03-29T09:01:24.084Z,175
2016-03-29T09:02:24.054Z,275
2016-03-29T09:03:27.635Z,190
2016-03-29T09:04:24.013Z,145
2016-03-29T09:05:24.016Z,110
2016-03-29T09:06:23.958Z,170
2016-03-29T09:07:23.944Z,195
2016-03-29T09:08:23.916Z,160
2016-03-29T09:09:23.902Z,160
2016-03-29T09:10:23.874Z,120
2016-03-29T09:11:23.940Z,180
2016-03-29T09:12:23.817Z,280
2016-03-29T09:13:23.804Z,240
2016-03-29T09:14:23.759Z,285
2016-03-29T09:15:23.747Z,250
2016-03-29T09:16:23.734Z,185
2016-03-29T09:17:23.721Z,145
2016-03-29T09:18:23.677Z,180
2016-03-29T09:19:23.648Z,220
2016-03-29T09:20:23.636Z,185
2016-03-29T09:21:23.606Z,180
2016-03-29T09:22:23.579Z,140
2016-03-29T09:23:23.565Z,165
2016-03-29T09:24:23.522Z,230
2016-03-29T09:25:23.493Z,235
2016-03-29T09:26:23.480Z,250
2016-03-29T09:27:23.467Z,225
2016-03-29T09:28:23.422Z,310
2016-03-29T09:29:23.394Z,315
2016-03-29T09:30:23.380Z,190
2016-03-29T09:31:23.352Z,130
2016-03-29T09:32:23.339Z,170
2016-03-29T09:33:23.280Z,250
2016-03-29T09:34:23.283Z,295
2016-03-29T09:35:23.270Z,310
2016-03-29T09:36:23.225Z,225
2016-03-29T09:37:23.213Z,245
2016-03-29T09:38:23.199Z,195
2016-03-29T09:39:23.155Z,235
2016-03-29T09:40:23.143Z,230
2016-03-29T09:41:23.113Z,205
2016-03-29T09:42:23.226Z,185
2016-03-29T09:43:23.072Z,175
2016-03-29T09:44:23.043Z,170
2016-03-29T09:45:23.015Z,185
2016-03-29T09:46:23.007Z,165
2016-03-29T09:47:22.979Z,140
2016-03-29T09:48:22.934Z,155
2016-03-29T09:49:22.906Z,265
2016-03-29T09:50:22.908Z,345
2016-03-29T09:51:22.864Z,230
2016-03-29T09:52:22.836Z,150
2016-03-29T09:53:22.822Z,145
2016-03-29T09:54:22.795Z,195
2016-03-29T09:55:22.766Z,175
2016-03-29T09:56:22.753Z,205
2016-03-29T09:57:22.756Z,195
2016-03-29T09:58:22.680Z,170
2016-03-29T09:59:22.667Z,205
2016-03-29T10:00:22.622Z,255
2016-03-29T10:01:22.610Z,295
2016-03-29T10:02:22.581Z,300
2016-03-29T10:03:22.537Z,210
2016-03-29T10:04:22.540Z,190
2016-03-29T10:05:22.526Z,220
2016-03-29T10:06:22.499Z,190
2016-03-29T10:07:22.470Z,195
2016-03-29T10:08:22.441Z,220
2016-03-29T10:09:22.429Z,245
2016-03-29T10:10:22.384Z,170
2016-03-29T10:11:22.371Z,160
2016-03-29T10:12:22.483Z,145
2016-03-29T10:13:22.205Z,175
2016-03-29T10:14:22.332Z,220
2016-03-29T10:15:22.273Z,185
2016-03-29T10:16:22.245Z,200
2016-03-29T10:17:22.231Z,250
2016-03-29T10:18:22.234Z,300
2016-03-29T10:19:22.174Z,375
2016-03-29T10:20:22.161Z,320
2016-03-29T10:21:22.133Z,420
2016-03-29T10:22:22.103Z,365
2016-03-29T10:23:22.075Z,415
2016-03-29T10:24:22.062Z,410
2016-03-29T10:25:22.034Z,390
2016-03-29T10:26:22.022Z,435
2016-03-29T10:27:22.102Z,440
2016-03-29T10:28:21.964Z,470
2016-03-29T10:29:21.950Z,410
2016-03-29T10:30:21.922Z,440
2016-03-29T10:31:21.909Z,485
2016-03-29T10:32:21.880Z,460
2016-03-29T10:33:21.836Z,370
2016-03-29T10:34:21.838Z,355
2016-03-29T10:35:21.810Z,345
2016-03-29T10:36:21.798Z,335
2016-03-29T10:37:21.753Z,295
2016-03-29T10:38:21.740Z,285
2016-03-29T10:39:21.712Z,255
2016-03-29T10:40:21.684Z,295
2016-03-29T10:41:21.671Z,280
2016-03-29T10:42:21.782Z,350
2016-03-29T10:43:21.645Z,445
2016-03-29T10:44:21.600Z,480
2016-03-29T10:45:21.572Z,295
2016-03-29T10:46:21.559Z,195
2016-03-29T10:47:21.577Z,145
2016-03-29T10:48:21.517Z,140
2016-03-29T10:49:21.473Z,135
2016-03-29T10:50:21.444Z,110
2016-03-29T10:51:21.463Z,165
2016-03-29T10:52:21.434Z,145
2016-03-29T10:53:21.453Z,120
2016-03-29T10:54:21.361Z,105
2016-03-29T10:55:21.334Z,105
2016-03-29T10:56:21.320Z,105
2016-03-29T10:57:21.183Z,85
2016-03-29T10:58:21.278Z,100
2016-03-29T10:59:21.267Z,125
2016-03-29T11:00:21.222Z,135
2016-03-29T11:01:21.225Z,110
2016-03-29T11:02:21.196Z,100
2016-03-29T11:03:21.152Z,95
2016-03-29T11:04:21.139Z,100
2016-03-29T11:05:21.126Z,105
2016-03-29T11:06:21.097Z,120
2016-03-29T11:07:21.068Z,140
2016-03-29T11:08:21.087Z,155
2016-03-29T11:09:21.012Z,160
2016-03-29T11:10:20.983Z,255
2016-03-29T11:11:20.970Z,320
2016-03-29T11:12:20.988Z,270
2016-03-29T11:13:20.929Z,320
2016-03-29T11:14:20.884Z,325
2016-03-29T11:15:20.871Z,300
2016-03-29T11:16:20.842Z,235
2016-03-29T11:17:20.861Z,245
2016-03-29T11:18:20.832Z,275
2016-03-29T11:19:20.773Z,285
2016-03-29T11:20:20.760Z,260
2016-03-29T11:21:20.715Z,305
2016-03-29T11:22:20.734Z,375
2016-03-29T11:23:20.690Z,405
2016-03-29T11:24:20.661Z,360
2016-03-29T11:25:20.617Z,315
2016-03-29T11:26:20.604Z,335
2016-03-29T11:27:20.576Z,410
2016-03-29T11:28:20.579Z,410
2016-03-29T11:29:20.534Z,390
2016-03-29T11:30:20.522Z,410
2016-03-29T11:31:20.492Z,415
2016-03-29T11:32:20.480Z,385
2016-03-29T11:33:20.436Z,350
2016-03-29T11:34:20.422Z,375
2016-03-29T11:35:20.410Z,355
2016-03-29T11:36:20.380Z,345
2016-03-29T11:37:20.353Z,335
2016-03-29T11:38:20.340Z,320
2016-03-29T11:39:20.311Z,300
2016-03-29T11:40:20.267Z,285
2016-03-29T11:41:20.254Z,250
2016-03-29T11:42:20.054Z,220
2016-03-29T11:43:20.212Z,200
2016-03-29T11:44:20.199Z,185
2016-03-29T11:45:20.170Z,160
2016-03-29T11:46:20.142Z,145
2016-03-29T11:47:20.129Z,160
2016-03-29T11:48:20.116Z,215
2016-03-29T11:49:20.072Z,320
2016-03-29T11:50:20.059Z,320
2016-03-29T11:51:20.031Z,300
2016-03-29T11:52:20.002Z,300
2016-03-29T11:53:19.989Z,295
2016-03-29T11:54:19.961Z,330
2016-03-29T11:55:19.932Z,360
2016-03-29T11:56:19.904Z,375
2016-03-29T11:57:19.891Z,350
2016-03-29T11:58:19.862Z,340
2016-03-29T11:59:19.833Z,340
2016-03-29T12:00:19.805Z,385
2016-03-29T12:01:19.792Z,410
2016-03-29T12:02:19.780Z,415
2016-03-29T12:03:19.735Z,395
2016-03-29T12:04:19.706Z,370
2016-03-29T12:05:19.708Z,380
2016-03-29T12:06:19.696Z,385
2016-03-29T12:07:19.665Z,390
2016-03-29T12:08:19.636Z,390
2016-03-29T12:09:19.623Z,400
2016-03-29T12:10:19.610Z,425
2016-03-29T12:11:19.566Z,440
2016-03-29T12:12:19.693Z,420
2016-03-29T12:13:19.540Z,380
2016-03-29T12:14:19.511Z,315
2016-03-29T12:15:19.483Z,285
2016-03-29T12:16:19.471Z,290
2016-03-29T12:17:19.442Z,270
2016-03-29T12:18:19.428Z,270
2016-03-29T12:19:19.415Z,325
2016-03-29T12:20:19.402Z,380
2016-03-29T12:21:19.342Z,435
2016-03-29T12:22:19.330Z,415
2016-03-29T12:23:19.317Z,330
2016-03-29T12:24:19.289Z,270
2016-03-29T12:25:19.261Z,290
2016-03-29T12:26:19.247Z,305
2016-03-29T12:27:19.328Z,275
2016-03-29T12:28:19.206Z,280
2016-03-29T12:29:19.177Z,340
2016-03-29T12:30:19.164Z,395
2016-03-29T12:31:19.136Z,370
2016-03-29T12:32:19.122Z,395
2016-03-29T12:33:19.094Z,380
2016-03-29T12:34:19.066Z,335
2016-03-29T12:35:19.052Z,325
2016-03-29T12:36:19.055Z,315
2016-03-29T12:37:19.010Z,365
2016-03-29T12:38:18.982Z,290
2016-03-29T12:39:18.969Z,285
2016-03-29T12:40:18.940Z,340
2016-03-29T12:41:18.912Z,385
2016-03-29T12:42:18.806Z,375
2016-03-29T12:43:18.871Z,295
2016-03-29T12:44:18.858Z,255
2016-03-29T12:45:18.830Z,230
2016-03-29T12:46:18.660Z,215
2016-03-29T12:47:18.788Z,200
2016-03-29T12:48:18.776Z,200
2016-03-29T12:49:18.746Z,190
2016-03-29T12:50:18.718Z,165
2016-03-29T12:51:18.706Z,170
2016-03-29T12:52:18.692Z,175
2016-03-29T12:53:18.664Z,180
2016-03-29T12:54:18.650Z,170
2016-03-29T12:55:18.622Z,185
2016-03-29T12:56:18.609Z,245
2016-03-29T12:57:18.564Z,240
2016-03-29T12:58:18.536Z,225
2016-03-29T12:59:18.523Z,200
2016-03-29T13:00:18.510Z,265
2016-03-29T13:01:18.482Z,235
2016-03-29T13:02:18.468Z,170
2016-03-29T13:03:18.440Z,175
2016-03-29T13:04:18.427Z,190
2016-03-29T13:05:18.383Z,225
2016-03-29T13:06:18.588Z,255
2016-03-29T13:07:18.357Z,225
2016-03-29T13:08:18.344Z,160
2016-03-29T13:09:18.316Z,185
2016-03-29T13:10:18.272Z,215
2016-03-29T13:11:18.259Z,205
2016-03-29T13:12:18.246Z,250
2016-03-29T13:13:18.218Z,355
2016-03-29T13:14:18.220Z,280
2016-03-29T13:15:18.176Z,245
2016-03-29T13:16:18.163Z,330
2016-03-29T13:17:18.134Z,305
2016-03-29T13:18:18.121Z,270
2016-03-29T13:19:18.093Z,245
2016-03-29T13:20:18.079Z,270
2016-03-29T13:21:18.067Z,235
2016-03-29T13:22:18.038Z,215
2016-03-29T13:23:18.025Z,270
2016-03-29T13:24:17.981Z,320
2016-03-29T13:25:17.968Z,320
2016-03-29T13:26:17.939Z,290
2016-03-29T13:27:17.911Z,255
2016-03-29T13:28:17.913Z,270
2016-03-29T13:29:17.885Z,290
2016-03-29T13:30:17.856Z,250
2016-03-29T13:31:17.828Z,265
2016-03-29T13:32:17.815Z,230
2016-03-29T13:33:17.786Z,190
2016-03-29T13:34:17.758Z,195
2016-03-29T13:35:17.744Z,195
2016-03-29T13:36:17.732Z,255
2016-03-29T13:37:17.688Z,275
2016-03-29T13:38:17.674Z,205
2016-03-29T13:39:17.677Z,200
2016-03-29T13:40:17.649Z,175
2016-03-29T13:41:17.620Z,170
2016-03-29T13:42:17.623Z,200
2016-03-29T13:43:17.579Z,205
2016-03-29T13:44:17.550Z,215
2016-03-29T13:45:17.521Z,240
2016-03-29T13:46:17.509Z,235
2016-03-29T13:47:17.496Z,210
2016-03-29T13:48:17.467Z,180
2016-03-29T13:49:17.455Z,175
2016-03-29T13:50:17.442Z,175
2016-03-29T13:51:17.413Z,190
2016-03-29T13:52:17.401Z,215
2016-03-29T13:53:17.372Z,270
2016-03-29T13:54:17.343Z,280
2016-03-29T13:55:17.345Z,300
2016-03-29T13:56:17.301Z,300
2016-03-29T13:57:17.304Z,295
2016-03-29T13:58:17.260Z,300
2016-03-29T13:59:17.231Z,295
2016-03-29T14:00:17.219Z,290
2016-03-29T14:01:17.189Z,275
2016-03-29T14:02:17.161Z,275
2016-03-29T14:03:17.163Z,270
2016-03-29T14:04:17.119Z,275
2016-03-29T14:05:17.091Z,235
2016-03-29T14:06:17.063Z,275
2016-03-29T14:07:16.955Z,310
2016-03-29T14:08:19.141Z,325
2016-03-29T14:09:17.036Z,320
2016-03-29T14:10:17.034Z,305